Hoard, Wisconsin
Current Conditions -  °F | °C
As of 6:15 AM on Sunday 23 Nov 2014 (Local Time) from KMDZ Reporting Station
Moderate Fog Moderate Fog  
Wind Chill: 34°   Ceiling: 200
Heat Index: 40°   Visibility: 0mi
Dew Point: 40°   Wind: 10mph
Humidity: 100%   Direction: 170°S
Pressure: 29.53"   Gusts: NA
Location:  44.9591°N, 90.4659°W
Report Text: KMDZ 231215Z AUTO 17009KT M1/4SM FG OVC002 05/05 A2953 RMK AO2 T00460046
Loading
Personal Weather Stations






























Interactive Weather Map New forecast layout! Learn more

10-Day Weather Forecast

Advertisements
Track Severe Weather on mobile